Terminal Aerodrome Forecast
Issued by NWS

Home | Current Version | Previous Version | Text Only | Print | Product List | Glossary On
Versions: 1 2 3 4 5 6 7 8 9 10 11 12 13 14 15 16 17 18 19 20 21 22 23 24 25 26 27 28 29 30 31 32
000
FTUS41 KOKX 260801 AAA
TAFHPN
TAF AMD
KHPN 260801Z 2608/2706 34006KT 5SM -SHRA OVC008
     FM260900 32007KT 5SM -SHRA OVC008
     FM261300 30007KT P6SM -SHRA BKN010
     FM261700 29008KT P6SM VCSH BKN035
     FM262000 31009KT P6SM VCSH BKN035
     FM262200 32008KT P6SM BKN035
     FM270100 31007KT P6SM SCT035
      AMD NOT SKED=

USA.gov is the U.S. government's official web portal to all federal, state and local government web resources and services.